ěÝzenÝ letovÚho provozu ╚eskÚ republiky
Letiste: LKCV Aktualizace: 21.10.2021 10:12:28  UTC
 SPECI LKCV 21.10. 10:07 ...
SPECI LKCV 211007Z 24028G38KT 9999 FEW035 SCT060 BKN220 19/06 Q1002 RMK BLU=
 TAF LKCV 21.10. 05:00 AAB
TAF AMD LKCV 210500Z 2109/2206 23020G30KT CAVOK      TEMPO 2110/2115 24028G40KT      BECMG 2115/2118 24015G25KT      TEMPO 2121/2200 24020G30KT 8000 RA BKN030=
 WARNING LKCV 21.10. 10:10 ...
LKCV AD WRNG 1 VALID 211010/211300 SFC WSPD MAX 40 KT=